Latest Weather Observations for Frederick Reef

IDQ60801

Issued at 10:02 am EST Monday 25 July 2016 (issued every 30 minutes, with the page automatically refreshed every 10 minutes)

About weather observations | Map of weather stations | Latest weather observations for QLD | Other Formats
Station Details ID: 200701 Name: FREDERICK REEF Lat: -20.94 Lon: 154.40 Height: 4.9 m
Data from the previous 72 hours. | See also: Recent months for locations in Queensland
Date/Time
EST
Temp
°C
App
Temp
°C
Dew
Point
°C
Rel
Hum
%
Delta-T
°C
Wind Press
QNH
hPa
Press
MSL
hPa
Rain since
9am
mm
Dir  Spd
km/h
Gust
km/h
Spd
kts
Gust
kts
25/09:30am 24.1 - - - - ENE 15 19 8 10 1017.4 - -
25/09:00am 24.0 - - - - ENE 19 20 10 11 1017.4 1017.4 -
25/08:30am 24.4 - - - - ENE 15 19 8 10 1017.6 - -
25/08:00am 24.2 - - - - ENE 15 19 8 10 1017.3 1017.4 -
25/07:30am 24.0 - - - - ENE 15 17 8 9 1016.8 - -
25/07:00am 23.9 - - - - ENE 17 20 9 11 1016.6 1016.6 -
25/06:30am 23.3 - - - - E 13 15 7 8 1016.4 - -
25/06:00am 23.4 - - - - E 15 17 8 9 1016.1 1016.2 -
25/05:30am 23.5 - - - - S 13 17 7 9 1015.8 - -
25/05:00am 23.7 - - - - S 4 11 2 6 1015.6 1015.7 -
25/04:30am 23.5 - - - - SSE 6 15 3 8 1015.5 - -
25/04:00am 23.5 - - - - SSW 2 6 1 3 1015.5 1015.5 -
25/03:30am 23.4 - - - - CALM 0 4 0 2 1015.6 - -
25/03:00am 23.7 - - - - CALM 0 2 0 1 1015.5 1015.5 -
25/02:30am 23.4 - - - - CALM 0 2 0 1 1015.8 - -
25/02:00am 23.4 - - - - CALM 0 0 0 0 1016.2 1016.2 -
25/01:30am 23.4 - - - - CALM 0 2 0 1 1016.4 - -
25/01:00am 23.6 - - - - CALM 0 2 0 1 1016.7 1016.7 -
25/12:30am 23.5 - - - - CALM 0 2 0 1 1016.8 - -
25/12:00am 23.7 - - - - CALM 0 4 0 2 1016.8 1016.8 -
 
Date/Time
EST
Temp
°C
App
Temp
°C
Dew
Point
°C
Rel
Hum
%
Delta-T
°C
Wind Press
QNH
hPa
Press
MSL
hPa
Rain since
9am
mm
Dir  Spd
km/h
Gust
km/h
Spd
kts
Gust
kts
24/11:30pm 23.6 - - - - CALM 0 0 0 0 1016.8 - -
24/11:00pm 23.6 - - - - CALM 0 2 0 1 1016.6 1016.6 -
24/10:30pm 23.6 - - - - CALM 0 2 0 1 1016.7 - -
24/10:00pm 23.8 - - - - CALM 0 2 0 1 1016.7 1016.7 -
24/09:30pm 23.7 - - - - CALM 0 0 0 0 1016.5 - -
24/09:00pm 23.8 - - - - CALM 0 2 0 1 1016.3 1016.4 -
24/08:30pm 23.8 - - - - CALM 0 0 0 0 1016.1 - -
24/08:00pm 23.8 - - - - CALM 0 0 0 0 1016.0 1016.1 -
24/07:30pm 23.9 - - - - CALM 0 0 0 0 1015.7 - -
24/07:00pm 23.8 - - - - CALM 0 0 0 0 1015.4 1015.6 -
24/06:30pm 24.0 - - - - CALM 0 4 0 2 1015.0 - -
24/06:00pm 23.9 - - - - W 2 6 1 3 1014.8 1014.8 -
24/05:30pm 23.9 - - - - CALM 0 2 0 1 1014.6 - -
24/05:00pm 23.9 - - - - CALM 0 0 0 0 1014.2 1014.3 -
24/04:30pm 24.2 - - - - CALM 0 2 0 1 1014.1 - -
24/04:00pm 24.4 - - - - CALM 0 0 0 0 1014.0 1014.1 -
24/03:30pm 24.4 - - - - CALM 0 0 0 0 1014.1 - -
24/03:00pm 24.2 - - - - CALM 0 7 0 4 1014.0 1014.0 -
24/02:30pm 24.6 - - - - CALM 0 0 0 0 1013.9 - -
24/02:00pm 24.7 - - - - CALM 0 0 0 0 1014.1 1014.1 -
24/01:30pm 24.5 - - - - CALM 0 0 0 0 1014.4 - -
24/01:00pm 24.2 - - - - CALM 0 0 0 0 1014.5 1014.5 -
24/12:30pm 24.0 - - - - SE 6 7 3 4 1014.8 - -
24/12:00pm 24.1 - - - - ENE 7 11 4 6 1015.2 1015.2 -
24/11:30am 24.3 - - - - NE 9 13 5 7 1015.6 - -
24/11:00am 24.5 - - - - NE 9 11 5 6 1015.8 1015.9 -
24/10:30am 24.6 - - - - NNE 11 13 6 7 1016.0 - -
24/10:00am 24.9 - - - - NNE 9 - 5 - - 1016.2 -
24/09:30am 24.9 - - - - NNE 11 13 6 7 1016.5 - -
24/09:00am 24.6 - - - - NNE 11 15 6 8 1016.5 1016.5 -
24/08:30am 24.6 - - - - NNE 9 11 5 6 1016.5 - -
24/08:00am 24.2 - - - - NE 9 13 5 7 1016.2 1016.3 -
24/07:30am 24.1 - - - - NNE 9 13 5 7 1016.1 - -
24/07:00am 24.0 - - - - NE 9 15 5 8 1015.9 1015.9 -
24/06:30am 23.2 - - - - ENE 7 9 4 5 1015.8 - -
24/06:00am 23.1 - - - - ENE 9 11 5 6 1015.5 1015.5 -
24/05:30am 23.1 - - - - WSW 2 6 1 3 1015.2 - -
24/05:00am 23.0 - - - - W 9 13 5 7 1014.8 1014.9 -
24/04:30am 23.1 - - - - W 6 11 3 6 1014.4 - -
24/04:00am 23.0 - - - - W 9 13 5 7 1014.3 1014.3 -
24/03:30am 23.0 - - - - WNW 11 13 6 7 1014.2 - -
24/03:00am 23.0 - - - - NNE 11 15 6 8 1014.3 1014.3 -
24/02:30am 23.1 - - - - WNW 4 11 2 6 1014.5 - -
24/02:00am 23.0 - - - - WNW 4 4 2 2 1014.7 1014.6 -
24/01:30am 23.1 - - - - CALM 0 4 0 2 1014.8 - -
24/01:00am 23.1 - - - - CALM 0 11 0 6 1015.0 1014.9 -
24/12:30am 23.1 - - - - CALM 0 6 0 3 1015.2 - -
24/12:00am 23.2 - - - - W 4 11 2 6 1015.1 1015.2 -
 
Date/Time
EST
Temp
°C
App
Temp
°C
Dew
Point
°C
Rel
Hum
%
Delta-T
°C
Wind Press
QNH
hPa
Press
MSL
hPa
Rain since
9am
mm
Dir  Spd
km/h
Gust
km/h
Spd
kts
Gust
kts
23/11:30pm 23.2 - - - - W 2 9 1 5 1015.1 - -
23/11:00pm 23.1 - - - - W 2 6 1 3 1015.1 1015.1 -
23/10:30pm 23.2 - - - - CALM 0 4 0 2 1015.2 - -
23/10:00pm 23.3 - - - - CALM 0 4 0 2 1015.2 1015.2 -
23/09:30pm 23.2 - - - - CALM 0 7 0 4 1015.1 - -
23/09:00pm 23.3 - - - - CALM 0 0 0 0 1015.0 1015.0 -
23/08:30pm 23.4 - - - - CALM 0 2 0 1 1014.8 - -
23/08:00pm 23.3 - - - - CALM 0 2 0 1 1014.5 1014.6 -
23/07:30pm 23.2 - - - - CALM 0 0 0 0 1014.5 - -
23/07:00pm 23.4 - - - - CALM 0 0 0 0 1014.3 1014.3 -
23/06:30pm 23.4 - - - - CALM 0 0 0 0 1013.9 - -
23/06:00pm 23.5 - - - - W 2 7 1 4 1013.7 1013.8 -
23/05:30pm 24.1 - - - - W 2 7 1 4 1013.4 - -
23/05:00pm 24.9 - - - - CALM 0 6 0 3 1013.3 1013.3 -
23/04:30pm 26.0 - - - - CALM 0 6 0 3 1013.1 - -
23/04:00pm 25.6 - - - - CALM 0 0 0 0 1012.9 1013.0 -
23/03:30pm 24.8 - - - - CALM 0 0 0 0 1012.6 - -
23/03:00pm 24.2 - - - - CALM 0 0 0 0 1012.5 1012.5 -
23/02:30pm 24.8 - - - - CALM 0 0 0 0 1012.7 - -
23/02:00pm 24.3 - - - - CALM 0 0 0 0 1013.0 1013.0 -
23/01:30pm 24.5 - - - - NNE 9 11 5 6 1013.4 - -
23/01:00pm 24.8 - - - - NNE 2 9 1 5 1013.6 1013.6 -
23/12:30pm 24.9 - - - - N 6 9 3 5 1014.1 - -
23/12:00pm 24.7 - - - - CALM 0 0 0 0 1014.8 1014.7 -
23/11:30am 24.5 - - - - CALM 0 0 0 0 1015.0 - -
23/11:00am 24.6 - - - - CALM 0 0 0 0 1015.3 1015.3 -
23/10:30am 24.2 - - - - ENE 4 7 2 4 1015.6 - -
23/10:00am 24.1 - - - - NE 7 9 4 5 1015.9 1015.8 -
23/09:30am 24.4 - - - - NE 7 9 4 5 1016.1 - -
23/09:00am 24.0 - - - - NE 6 11 3 6 1016.1 1016.1 -
23/08:30am 23.8 - - - - NE 9 13 5 7 1016.1 - -
23/08:00am 23.5 - - - - E 11 13 6 7 1015.9 1016.0 -
23/07:30am 23.2 - - - - ENE 11 13 6 7 1015.7 - -
23/07:00am 23.0 - - - - ENE 11 17 6 9 1015.5 1015.5 -
23/06:30am 22.8 - - - - NNE 11 15 6 8 1015.2 - -
23/06:00am 22.8 - - - - NE 11 13 6 7 1014.9 1015.0 -
23/05:30am 23.0 - - - - W 11 15 6 8 1014.6 - -
23/05:00am 22.8 - - - - WSW 7 11 4 6 1014.3 1014.4 -
23/04:30am 22.7 - - - - WSW 4 7 2 4 1014.1 - -
23/04:00am 22.6 - - - - WSW 7 11 4 6 1014.1 1014.1 -
23/03:30am 22.7 - - - - WSW 7 13 4 7 1014.2 - -
23/03:00am 22.8 - - - - WSW 9 11 5 6 1014.4 1014.3 -
23/02:30am 22.8 - - - - WSW 9 11 5 6 1014.4 - -
23/02:00am 22.8 - - - - SW 11 17 6 9 1014.6 1014.6 -
23/01:30am 22.8 - - - - WSW 11 15 6 8 1014.7 - -
23/01:00am 22.8 - - - - SW 13 17 7 9 1015.0 1015.0 -
23/12:30am 22.9 - - - - SW 11 17 6 9 1015.2 - -
23/12:00am 22.9 - - - - SSW 13 19 7 10 1015.3 1015.3 -
 
Date/Time
EST
Temp
°C
App
Temp
°C
Dew
Point
°C
Rel
Hum
%
Delta-T
°C
Wind Press
QNH
hPa
Press
MSL
hPa
Rain since
9am
mm
Dir  Spd
km/h
Gust
km/h
Spd
kts
Gust
kts
22/11:30pm 22.9 - - - - SW 11 15 6 8 1015.4 - -
22/11:00pm 23.0 - - - - SW 11 15 6 8 1015.6 1015.5 -
22/10:30pm 23.0 - - - - SW 11 15 6 8 1015.6 - -
22/10:00pm 23.1 - - - - WSW 6 11 3 6 1015.7 1015.7 -
22/09:30pm 23.1 - - - - W 9 15 5 8 1015.7 - -
22/09:00pm 23.0 - - - - WSW 9 13 5 7 1015.6 1015.6 -
22/08:30pm 23.2 - - - - WSW 9 15 5 8 1015.4 - -
22/08:00pm 23.1 - - - - SW 13 15 7 8 1015.2 1015.2 -
22/07:30pm 23.2 - - - - SSW 13 19 7 10 1015.2 - -
22/07:00pm 23.3 - - - - SSW 9 17 5 9 1015.2 1015.3 -
22/06:30pm 23.2 - - - - SSW 13 15 7 8 1015.0 - -
22/06:00pm 23.2 - - - - ENE 11 15 6 8 1014.8 1014.8 -
22/05:30pm 23.2 - - - - NE 13 17 7 9 1014.8 - -
22/05:00pm 23.4 - - - - W 11 19 6 10 1014.7 1014.7 -
22/04:30pm 23.6 - - - - ENE 15 19 8 10 1014.5 - -
22/04:00pm 23.6 - - - - ENE 15 20 8 11 1014.4 1014.4 -
22/03:30pm 23.5 - - - - E 15 19 8 10 1014.2 - -
22/03:00pm 23.4 - - - - E 17 20 9 11 1014.1 1014.1 -
22/02:30pm 23.5 - - - - E 17 20 9 11 1014.1 - -
22/02:00pm 23.4 - - - - E 17 20 9 11 1014.2 1014.2 -
22/01:30pm 23.4 - - - - E 19 24 10 13 1014.4 - -
22/01:00pm 23.5 - - - - E 19 24 10 13 1014.9 1014.7 -
22/12:30pm 23.7 - - - - E 19 22 10 12 1015.3 - -
22/12:00pm 23.8 - - - - E 19 20 10 11 1015.6 1015.6 -
22/11:30am 23.3 - - - - E 17 22 9 12 1016.0 - -
22/11:00am 23.5 - - - - E 19 20 10 11 1016.5 1016.4 -
22/10:30am 23.5 - - - - E 20 24 11 13 1016.8 - -

Other Formats:

Comma delimited format used in spreadsheet applications
http://www.bom.gov.au/fwo/IDQ60801/IDQ60801.94393.axf

JavaScript Object Notation format (JSON) in row-major order
http://www.bom.gov.au/fwo/IDQ60801/IDQ60801.94393.json